sensor_id;sensor_type;location;lat;lon;timestamp;temperature;humidity
45489;DHT22;31236;55.026;61.042;2023-05-08T00:01:45;4.20;56.40
45489;DHT22;31236;55.026;61.042;2023-05-08T00:04:15;4.20;56.40
45489;DHT22;31236;55.026;61.042;2023-05-08T00:06:46;4.20;56.70
45489;DHT22;31236;55.026;61.042;2023-05-08T00:09:18;4.10;57.10
45489;DHT22;31236;55.026;61.042;2023-05-08T00:11:47;4.10;57.30
45489;DHT22;31236;55.026;61.042;2023-05-08T00:14:17;4.00;57.40
45489;DHT22;31236;55.026;61.042;2023-05-08T00:16:47;4.00;57.40
45489;DHT22;31236;55.026;61.042;2023-05-08T00:19:17;3.90;57.50
45489;DHT22;31236;55.026;61.042;2023-05-08T00:21:46;3.80;57.60
45489;DHT22;31236;55.026;61.042;2023-05-08T00:24:16;3.80;57.70
45489;DHT22;31236;55.026;61.042;2023-05-08T00:26:46;3.80;57.80
45489;DHT22;31236;55.026;61.042;2023-05-08T00:29:16;3.80;57.90
45489;DHT22;31236;55.026;61.042;2023-05-08T00:31:45;3.70;57.90
45489;DHT22;31236;55.026;61.042;2023-05-08T00:34:15;3.70;58.00
45489;DHT22;31236;55.026;61.042;2023-05-08T00:36:45;3.60;58.00
45489;DHT22;31236;55.026;61.042;2023-05-08T00:39:15;3.60;58.10
45489;DHT22;31236;55.026;61.042;2023-05-08T00:41:45;3.60;57.90
45489;DHT22;31236;55.026;61.042;2023-05-08T00:44:15;3.70;57.70
45489;DHT22;31236;55.026;61.042;2023-05-08T00:46:45;3.70;58.00
45489;DHT22;31236;55.026;61.042;2023-05-08T00:49:15;3.80;58.30
45489;DHT22;31236;55.026;61.042;2023-05-08T00:51:46;3.80;58.30
45489;DHT22;31236;55.026;61.042;2023-05-08T00:54:18;3.80;58.30
45489;DHT22;31236;55.026;61.042;2023-05-08T00:56:49;4.10;58.00
45489;DHT22;31236;55.026;61.042;2023-05-08T00:59:20;4.60;56.60
45489;DHT22;31236;55.026;61.042;2023-05-08T01:01:50;5.00;55.60
45489;DHT22;31236;55.026;61.042;2023-05-08T01:04:23;4.80;55.90
45489;DHT22;31236;55.026;61.042;2023-05-08T01:06:53;4.70;56.00
45489;DHT22;31236;55.026;61.042;2023-05-08T01:09:23;4.70;55.90
45489;DHT22;31236;55.026;61.042;2023-05-08T01:33:16;4.60;54.50
45489;DHT22;31236;55.026;61.042;2023-05-08T01:41:35;4.80;54.40
45489;DHT22;31236;55.026;61.042;2023-05-08T01:46:58;5.00;54.00
45489;DHT22;31236;55.026;61.042;2023-05-08T01:49:33;5.10;53.70
45489;DHT22;31236;55.026;61.042;2023-05-08T01:55:15;5.20;53.80
45489;DHT22;31236;55.026;61.042;2023-05-08T01:57:45;5.20;53.20
45489;DHT22;31236;55.026;61.042;2023-05-08T02:00:18;5.20;53.20
45489;DHT22;31236;55.026;61.042;2023-05-08T02:02:50;5.20;52.90
45489;DHT22;31236;55.026;61.042;2023-05-08T02:05:21;5.10;52.40
45489;DHT22;31236;55.026;61.042;2023-05-08T02:07:52;5.10;52.20
45489;DHT22;31236;55.026;61.042;2023-05-08T02:10:23;5.20;51.90
45489;DHT22;31236;55.026;61.042;2023-05-08T02:12:55;5.20;52.00
45489;DHT22;31236;55.026;61.042;2023-05-08T02:15:26;5.30;51.60
45489;DHT22;31236;55.026;61.042;2023-05-08T02:17:59;5.30;51.90
45489;DHT22;31236;55.026;61.042;2023-05-08T02:20:30;5.40;51.50
45489;DHT22;31236;55.026;61.042;2023-05-08T02:23:01;5.50;52.10
45489;DHT22;31236;55.026;61.042;2023-05-08T02:25:32;5.60;51.80
45489;DHT22;31236;55.026;61.042;2023-05-08T02:28:05;5.70;51.10
45489;DHT22;31236;55.026;61.042;2023-05-08T02:30:36;5.80;50.70
45489;DHT22;31236;55.026;61.042;2023-05-08T02:33:08;5.80;49.40
45489;DHT22;31236;55.026;61.042;2023-05-08T02:35:40;5.80;49.40
45489;DHT22;31236;55.026;61.042;2023-05-08T02:38:11;5.80;49.20
45489;DHT22;31236;55.026;61.042;2023-05-08T02:40:43;5.80;48.40
45489;DHT22;31236;55.026;61.042;2023-05-08T02:43:12;5.70;48.00
45489;DHT22;31236;55.026;61.042;2023-05-08T03:04:55;5.50;47.70
45489;DHT22;31236;55.026;61.042;2023-05-08T03:06:53;5.60;48.00
45489;DHT22;31236;55.026;61.042;2023-05-08T03:09:25;5.60;47.20
45489;DHT22;31236;55.026;61.042;2023-05-08T03:12:16;5.60;46.90
45489;DHT22;31236;55.026;61.042;2023-05-08T03:15:06;5.70;46.70
45489;DHT22;31236;55.026;61.042;2023-05-08T03:17:39;5.70;46.50
45489;DHT22;31236;55.026;61.042;2023-05-08T03:20:13;5.90;46.70
45489;DHT22;31236;55.026;61.042;2023-05-08T03:22:43;6.00;46.40
45489;DHT22;31236;55.026;61.042;2023-05-08T03:25:15;6.10;45.90
45489;DHT22;31236;55.026;61.042;2023-05-08T03:27:47;6.10;46.10
45489;DHT22;31236;55.026;61.042;2023-05-08T03:30:18;6.10;45.70
45489;DHT22;31236;55.026;61.042;2023-05-08T03:32:49;6.40;45.80
45489;DHT22;31236;55.026;61.042;2023-05-08T03:35:21;6.50;45.00
45489;DHT22;31236;55.026;61.042;2023-05-08T03:37:53;6.40;44.50
45489;DHT22;31236;55.026;61.042;2023-05-08T03:40:23;6.40;44.70
45489;DHT22;31236;55.026;61.042;2023-05-08T03:42:53;6.40;44.90
45489;DHT22;31236;55.026;61.042;2023-05-08T03:45:24;6.30;45.40
45489;DHT22;31236;55.026;61.042;2023-05-08T03:47:54;6.50;45.50
45489;DHT22;31236;55.026;61.042;2023-05-08T03:50:26;6.60;45.60
45489;DHT22;31236;55.026;61.042;2023-05-08T03:52:57;6.80;45.50
45489;DHT22;31236;55.026;61.042;2023-05-08T03:55:28;7.00;44.80
45489;DHT22;31236;55.026;61.042;2023-05-08T04:01:11;7.30;44.80
45489;DHT22;31236;55.026;61.042;2023-05-08T04:07:11;7.10;44.20
45489;DHT22;31236;55.026;61.042;2023-05-08T04:19:09;7.00;43.70
45489;DHT22;31236;55.026;61.042;2023-05-08T04:21:39;7.00;44.30
45489;DHT22;31236;55.026;61.042;2023-05-08T04:24:11;7.10;44.50
45489;DHT22;31236;55.026;61.042;2023-05-08T04:26:41;7.40;44.30
45489;DHT22;31236;55.026;61.042;2023-05-08T04:29:11;7.40;43.80
45489;DHT22;31236;55.026;61.042;2023-05-08T04:31:42;7.40;43.30
45489;DHT22;31236;55.026;61.042;2023-05-08T04:34:12;7.30;43.40
45489;DHT22;31236;55.026;61.042;2023-05-08T04:36:42;7.30;43.90
45489;DHT22;31236;55.026;61.042;2023-05-08T04:39:15;7.40;43.80
45489;DHT22;31236;55.026;61.042;2023-05-08T04:41:46;7.50;43.10
45489;DHT22;31236;55.026;61.042;2023-05-08T04:44:17;7.60;43.50
45489;DHT22;31236;55.026;61.042;2023-05-08T04:46:47;7.80;43.10
45489;DHT22;31236;55.026;61.042;2023-05-08T04:49:17;7.90;42.80
45489;DHT22;31236;55.026;61.042;2023-05-08T04:51:47;8.00;41.30
45489;DHT22;31236;55.026;61.042;2023-05-08T04:54:17;8.10;42.40
45489;DHT22;31236;55.026;61.042;2023-05-08T04:56:47;8.20;42.70
45489;DHT22;31236;55.026;61.042;2023-05-08T04:59:17;8.40;42.70
45489;DHT22;31236;55.026;61.042;2023-05-08T05:01:46;8.40;41.60
45489;DHT22;31236;55.026;61.042;2023-05-08T05:04:16;8.30;41.10
45489;DHT22;31236;55.026;61.042;2023-05-08T05:06:47;8.30;41.00
45489;DHT22;31236;55.026;61.042;2023-05-08T05:09:16;8.40;41.20
45489;DHT22;31236;55.026;61.042;2023-05-08T05:11:46;8.40;41.40
45489;DHT22;31236;55.026;61.042;2023-05-08T05:14:16;8.40;40.00
45489;DHT22;31236;55.026;61.042;2023-05-08T05:16:47;8.30;39.70
45489;DHT22;31236;55.026;61.042;2023-05-08T05:19:17;8.20;39.70
45489;DHT22;31236;55.026;61.042;2023-05-08T05:21:47;8.20;39.70
45489;DHT22;31236;55.026;61.042;2023-05-08T05:24:18;8.20;40.60
45489;DHT22;31236;55.026;61.042;2023-05-08T05:26:48;8.40;40.30
45489;DHT22;31236;55.026;61.042;2023-05-08T05:29:18;8.40;40.10
45489;DHT22;31236;55.026;61.042;2023-05-08T05:31:48;8.40;40.60
45489;DHT22;31236;55.026;61.042;2023-05-08T05:34:18;8.50;40.80
45489;DHT22;31236;55.026;61.042;2023-05-08T05:36:48;8.60;39.90
45489;DHT22;31236;55.026;61.042;2023-05-08T05:39:18;8.60;39.60
45489;DHT22;31236;55.026;61.042;2023-05-08T05:41:48;8.60;39.60
45489;DHT22;31236;55.026;61.042;2023-05-08T05:44:18;8.50;39.20
45489;DHT22;31236;55.026;61.042;2023-05-08T05:46:48;8.60;40.00
45489;DHT22;31236;55.026;61.042;2023-05-08T05:49:17;8.70;39.40
45489;DHT22;31236;55.026;61.042;2023-05-08T05:51:47;8.70;38.70
45489;DHT22;31236;55.026;61.042;2023-05-08T05:54:17;8.70;39.50
45489;DHT22;31236;55.026;61.042;2023-05-08T05:56:47;8.80;39.90
45489;DHT22;31236;55.026;61.042;2023-05-08T05:59:18;9.00;39.50
45489;DHT22;31236;55.026;61.042;2023-05-08T06:01:48;9.20;39.50
45489;DHT22;31236;55.026;61.042;2023-05-08T06:04:18;9.30;39.50
45489;DHT22;31236;55.026;61.042;2023-05-08T06:06:48;9.50;39.20
45489;DHT22;31236;55.026;61.042;2023-05-08T06:09:18;9.70;39.20
45489;DHT22;31236;55.026;61.042;2023-05-08T06:11:47;10.00;39.50
45489;DHT22;31236;55.026;61.042;2023-05-08T06:14:17;10.20;39.60
45489;DHT22;31236;55.026;61.042;2023-05-08T06:16:47;10.30;38.70
45489;DHT22;31236;55.026;61.042;2023-05-08T06:19:17;10.30;38.10
45489;DHT22;31236;55.026;61.042;2023-05-08T06:21:50;10.40;39.00
45489;DHT22;31236;55.026;61.042;2023-05-08T06:24:20;10.40;37.60
45489;DHT22;31236;55.026;61.042;2023-05-08T06:26:50;10.30;37.20
45489;DHT22;31236;55.026;61.042;2023-05-08T06:29:20;10.30;37.50
45489;DHT22;31236;55.026;61.042;2023-05-08T06:31:49;10.40;38.30
45489;DHT22;31236;55.026;61.042;2023-05-08T06:34:19;10.60;38.20
45489;DHT22;31236;55.026;61.042;2023-05-08T06:36:49;10.60;37.30
45489;DHT22;31236;55.026;61.042;2023-05-08T06:39:19;10.60;37.00
45489;DHT22;31236;55.026;61.042;2023-05-08T06:41:48;10.60;37.80
45489;DHT22;31236;55.026;61.042;2023-05-08T06:44:18;10.70;37.10
45489;DHT22;31236;55.026;61.042;2023-05-08T06:46:48;10.60;37.90
45489;DHT22;31236;55.026;61.042;2023-05-08T06:49:18;10.60;38.00
45489;DHT22;31236;55.026;61.042;2023-05-08T06:51:49;10.60;37.50
45489;DHT22;31236;55.026;61.042;2023-05-08T06:54:18;10.60;36.80
45489;DHT22;31236;55.026;61.042;2023-05-08T06:56:48;10.60;37.30
45489;DHT22;31236;55.026;61.042;2023-05-08T06:59:18;10.70;37.90
45489;DHT22;31236;55.026;61.042;2023-05-08T07:01:49;10.80;36.20
45489;DHT22;31236;55.026;61.042;2023-05-08T07:04:19;10.70;36.30
45489;DHT22;31236;55.026;61.042;2023-05-08T07:06:48;10.80;36.10
45489;DHT22;31236;55.026;61.042;2023-05-08T07:09:18;10.90;36.50
45489;DHT22;31236;55.026;61.042;2023-05-08T07:11:48;11.00;36.20
45489;DHT22;31236;55.026;61.042;2023-05-08T07:14:18;11.10;34.30
45489;DHT22;31236;55.026;61.042;2023-05-08T07:16:48;11.00;35.10
45489;DHT22;31236;55.026;61.042;2023-05-08T07:19:17;10.80;35.00
45489;DHT22;31236;55.026;61.042;2023-05-08T07:21:47;10.80;35.30
45489;DHT22;31236;55.026;61.042;2023-05-08T07:24:17;10.70;36.40
45489;DHT22;31236;55.026;61.042;2023-05-08T07:26:47;10.90;36.00
45489;DHT22;31236;55.026;61.042;2023-05-08T07:29:17;11.00;34.80
45489;DHT22;31236;55.026;61.042;2023-05-08T07:31:47;10.80;35.30
45489;DHT22;31236;55.026;61.042;2023-05-08T07:34:18;10.80;35.00
45489;DHT22;31236;55.026;61.042;2023-05-08T07:36:48;10.80;35.30
45489;DHT22;31236;55.026;61.042;2023-05-08T07:39:18;10.80;36.30
45489;DHT22;31236;55.026;61.042;2023-05-08T07:41:48;10.90;35.90
45489;DHT22;31236;55.026;61.042;2023-05-08T07:44:18;11.00;35.50
45489;DHT22;31236;55.026;61.042;2023-05-08T07:46:47;11.10;36.20
45489;DHT22;31236;55.026;61.042;2023-05-08T07:49:17;11.20;35.90
45489;DHT22;31236;55.026;61.042;2023-05-08T07:51:47;11.30;35.70
45489;DHT22;31236;55.026;61.042;2023-05-08T07:54:17;11.40;36.10
45489;DHT22;31236;55.026;61.042;2023-05-08T07:56:46;11.50;37.00
45489;DHT22;31236;55.026;61.042;2023-05-08T07:59:16;11.60;35.70
45489;DHT22;31236;55.026;61.042;2023-05-08T08:01:46;11.60;35.20
45489;DHT22;31236;55.026;61.042;2023-05-08T08:04:16;11.60;35.70
45489;DHT22;31236;55.026;61.042;2023-05-08T08:06:46;11.70;35.40
45489;DHT22;31236;55.026;61.042;2023-05-08T08:09:15;11.60;35.70
45489;DHT22;31236;55.026;61.042;2023-05-08T08:11:45;11.80;35.90
45489;DHT22;31236;55.026;61.042;2023-05-08T08:14:15;11.90;35.00
45489;DHT22;31236;55.026;61.042;2023-05-08T08:16:45;12.00;33.60
45489;DHT22;31236;55.026;61.042;2023-05-08T08:19:14;12.00;33.10
45489;DHT22;31236;55.026;61.042;2023-05-08T08:21:44;11.90;32.90
45489;DHT22;31236;55.026;61.042;2023-05-08T08:24:14;11.90;33.10
45489;DHT22;31236;55.026;61.042;2023-05-08T08:26:44;12.10;34.50
45489;DHT22;31236;55.026;61.042;2023-05-08T08:29:14;12.30;33.00
45489;DHT22;31236;55.026;61.042;2023-05-08T08:31:43;12.20;30.90
45489;DHT22;31236;55.026;61.042;2023-05-08T08:34:13;12.00;31.00
45489;DHT22;31236;55.026;61.042;2023-05-08T08:36:43;11.90;31.40
45489;DHT22;31236;55.026;61.042;2023-05-08T08:39:13;12.00;31.30
45489;DHT22;31236;55.026;61.042;2023-05-08T08:41:43;12.00;32.20
45489;DHT22;31236;55.026;61.042;2023-05-08T08:44:13;12.10;33.20
45489;DHT22;31236;55.026;61.042;2023-05-08T08:47:02;12.30;33.10
45489;DHT22;31236;55.026;61.042;2023-05-08T08:49:35;12.40;31.50
45489;DHT22;31236;55.026;61.042;2023-05-08T08:52:46;12.40;32.00
45489;DHT22;31236;55.026;61.042;2023-05-08T08:54:40;12.50;31.50
45489;DHT22;31236;55.026;61.042;2023-05-08T08:57:10;12.40;31.10
45489;DHT22;31236;55.026;61.042;2023-05-08T08:59:41;12.40;31.50
45489;DHT22;31236;55.026;61.042;2023-05-08T09:02:12;12.50;31.20
45489;DHT22;31236;55.026;61.042;2023-05-08T09:04:43;12.60;31.80
45489;DHT22;31236;55.026;61.042;2023-05-08T09:07:13;12.70;32.50
45489;DHT22;31236;55.026;61.042;2023-05-08T09:09:44;12.80;31.30
45489;DHT22;31236;55.026;61.042;2023-05-08T09:12:14;12.80;30.20
45489;DHT22;31236;55.026;61.042;2023-05-08T09:14:44;12.80;29.30
45489;DHT22;31236;55.026;61.042;2023-05-08T09:17:14;12.80;28.70
45489;DHT22;31236;55.026;61.042;2023-05-08T09:19:44;12.90;28.60
45489;DHT22;31236;55.026;61.042;2023-05-08T09:22:16;13.00;28.30
45489;DHT22;31236;55.026;61.042;2023-05-08T09:25:05;13.10;28.50
45489;DHT22;31236;55.026;61.042;2023-05-08T09:27:35;13.10;28.20
45489;DHT22;31236;55.026;61.042;2023-05-08T09:30:07;13.10;29.30
45489;DHT22;31236;55.026;61.042;2023-05-08T09:32:40;13.10;28.40
45489;DHT22;31236;55.026;61.042;2023-05-08T09:35:11;13.10;27.90
45489;DHT22;31236;55.026;61.042;2023-05-08T09:37:41;13.20;29.00
45489;DHT22;31236;55.026;61.042;2023-05-08T09:45:53;13.60;29.00
45489;DHT22;31236;55.026;61.042;2023-05-08T09:48:42;13.70;29.20
45489;DHT22;31236;55.026;61.042;2023-05-08T09:51:12;13.90;29.40
45489;DHT22;31236;55.026;61.042;2023-05-08T09:53:43;13.90;29.50
45489;DHT22;31236;55.026;61.042;2023-05-08T09:56:12;13.90;28.80
45489;DHT22;31236;55.026;61.042;2023-05-08T09:58:43;13.90;28.90
45489;DHT22;31236;55.026;61.042;2023-05-08T10:01:33;13.70;28.60
45489;DHT22;31236;55.026;61.042;2023-05-08T10:04:03;13.60;27.90
45489;DHT22;31236;55.026;61.042;2023-05-08T10:06:33;13.70;28.00
45489;DHT22;31236;55.026;61.042;2023-05-08T10:09:23;13.80;27.70
45489;DHT22;31236;55.026;61.042;2023-05-08T10:11:53;13.80;28.00
45489;DHT22;31236;55.026;61.042;2023-05-08T10:14:23;14.00;28.20
45489;DHT22;31236;55.026;61.042;2023-05-08T10:16:54;14.20;27.90
45489;DHT22;31236;55.026;61.042;2023-05-08T10:19:24;14.20;27.60
45489;DHT22;31236;55.026;61.042;2023-05-08T10:21:55;14.40;27.70
45489;DHT22;31236;55.026;61.042;2023-05-08T10:24:27;14.40;27.50
45489;DHT22;31236;55.026;61.042;2023-05-08T10:27:18;14.20;27.90
45489;DHT22;31236;55.026;61.042;2023-05-08T10:29:52;14.20;27.50
45489;DHT22;31236;55.026;61.042;2023-05-08T10:32:23;14.20;28.20
45489;DHT22;31236;55.026;61.042;2023-05-08T10:35:25;14.30;28.40
45489;DHT22;31236;55.026;61.042;2023-05-08T10:37:27;14.40;28.20
45489;DHT22;31236;55.026;61.042;2023-05-08T10:39:59;14.60;28.00
45489;DHT22;31236;55.026;61.042;2023-05-08T10:42:29;14.50;28.30
45489;DHT22;31236;55.026;61.042;2023-05-08T10:45:00;14.40;29.20
45489;DHT22;31236;55.026;61.042;2023-05-08T10:56:41;14.80;28.10
45489;DHT22;31236;55.026;61.042;2023-05-08T10:59:30;14.80;28.50
45489;DHT22;31236;55.026;61.042;2023-05-08T11:05:29;14.70;28.20
45489;DHT22;31236;55.026;61.042;2023-05-08T11:07:59;14.60;27.50
45489;DHT22;31236;55.026;61.042;2023-05-08T11:10:31;14.80;28.20
45489;DHT22;31236;55.026;61.042;2023-05-08T11:13:04;15.00;27.60
45489;DHT22;31236;55.026;61.042;2023-05-08T11:15:53;15.20;28.00
45489;DHT22;31236;55.026;61.042;2023-05-08T11:18:23;15.30;28.00
45489;DHT22;31236;55.026;61.042;2023-05-08T11:24:08;15.30;27.50
45489;DHT22;31236;55.026;61.042;2023-05-08T11:29:25;14.90;27.40
45489;DHT22;31236;55.026;61.042;2023-05-08T11:31:55;14.80;27.30
45489;DHT22;31236;55.026;61.042;2023-05-08T11:34:45;14.80;27.90
45489;DHT22;31236;55.026;61.042;2023-05-08T11:37:34;14.80;28.30
45489;DHT22;31236;55.026;61.042;2023-05-08T11:44:09;14.30;28.30
45489;DHT22;31236;55.026;61.042;2023-05-08T11:46:06;14.00;28.60
45489;DHT22;31236;55.026;61.042;2023-05-08T11:48:36;13.80;29.00
45489;DHT22;31236;55.026;61.042;2023-05-08T11:51:06;13.80;28.90
45489;DHT22;31236;55.026;61.042;2023-05-08T11:53:36;13.80;28.90
45489;DHT22;31236;55.026;61.042;2023-05-08T11:56:06;13.90;28.90
45489;DHT22;31236;55.026;61.042;2023-05-08T11:58:36;13.80;28.80
45489;DHT22;31236;55.026;61.042;2023-05-08T12:01:06;13.80;29.10
45489;DHT22;31236;55.026;61.042;2023-05-08T12:03:36;13.70;29.20
45489;DHT22;31236;55.026;61.042;2023-05-08T12:06:07;13.60;29.10
45489;DHT22;31236;55.026;61.042;2023-05-08T12:08:38;13.60;28.90
45489;DHT22;31236;55.026;61.042;2023-05-08T12:11:08;13.50;28.50
45489;DHT22;31236;55.026;61.042;2023-05-08T12:13:38;13.60;28.80
45489;DHT22;31236;55.026;61.042;2023-05-08T12:16:09;13.70;29.20
45489;DHT22;31236;55.026;61.042;2023-05-08T12:18:39;13.80;29.40
45489;DHT22;31236;55.026;61.042;2023-05-08T12:21:11;13.90;29.50
45489;DHT22;31236;55.026;61.042;2023-05-08T12:23:41;13.90;29.20
45489;DHT22;31236;55.026;61.042;2023-05-08T12:26:11;13.70;29.20
45489;DHT22;31236;55.026;61.042;2023-05-08T12:31:34;13.70;30.00
45489;DHT22;31236;55.026;61.042;2023-05-08T12:34:05;13.80;29.50
45489;DHT22;31236;55.026;61.042;2023-05-08T12:36:36;13.80;29.80
45489;DHT22;31236;55.026;61.042;2023-05-08T12:39:26;13.80;29.90
45489;DHT22;31236;55.026;61.042;2023-05-08T12:41:55;13.80;30.00
45489;DHT22;31236;55.026;61.042;2023-05-08T12:44:25;13.90;30.20
45489;DHT22;31236;55.026;61.042;2023-05-08T12:46:56;13.90;30.00
45489;DHT22;31236;55.026;61.042;2023-05-08T12:50:01;13.90;30.00
45489;DHT22;31236;55.026;61.042;2023-05-08T12:52:18;13.80;29.50
45489;DHT22;31236;55.026;61.042;2023-05-08T12:54:48;13.80;29.40
45489;DHT22;31236;55.026;61.042;2023-05-08T12:57:19;13.70;30.00
45489;DHT22;31236;55.026;61.042;2023-05-08T12:59:48;13.60;29.70
45489;DHT22;31236;55.026;61.042;2023-05-08T13:02:20;13.60;29.50
45489;DHT22;31236;55.026;61.042;2023-05-08T13:05:11;13.60;29.70
45489;DHT22;31236;55.026;61.042;2023-05-08T13:07:43;13.60;30.00
45489;DHT22;31236;55.026;61.042;2023-05-08T13:10:13;13.60;29.90
45489;DHT22;31236;55.026;61.042;2023-05-08T13:12:45;13.60;29.90
45489;DHT22;31236;55.026;61.042;2023-05-08T13:15:15;13.60;30.10
45489;DHT22;31236;55.026;61.042;2023-05-08T13:17:44;13.60;31.10
45489;DHT22;31236;55.026;61.042;2023-05-08T13:20:14;13.70;30.70
45489;DHT22;31236;55.026;61.042;2023-05-08T13:22:44;13.80;30.10
45489;DHT22;31236;55.026;61.042;2023-05-08T13:25:14;13.80;29.80
45489;DHT22;31236;55.026;61.042;2023-05-08T13:27:44;13.70;29.60
45489;DHT22;31236;55.026;61.042;2023-05-08T13:30:14;13.70;30.00
45489;DHT22;31236;55.026;61.042;2023-05-08T13:32:44;13.60;29.60
45489;DHT22;31236;55.026;61.042;2023-05-08T13:35:14;13.50;29.80
45489;DHT22;31236;55.026;61.042;2023-05-08T13:37:44;13.50;29.80
45489;DHT22;31236;55.026;61.042;2023-05-08T13:40:15;13.40;30.00
45489;DHT22;31236;55.026;61.042;2023-05-08T13:42:44;13.40;29.70
45489;DHT22;31236;55.026;61.042;2023-05-08T13:45:14;13.50;30.00
45489;DHT22;31236;55.026;61.042;2023-05-08T13:47:47;13.50;29.90
45489;DHT22;31236;55.026;61.042;2023-05-08T13:50:18;13.60;30.30
45489;DHT22;31236;55.026;61.042;2023-05-08T13:52:48;13.70;30.40
45489;DHT22;31236;55.026;61.042;2023-05-08T13:55:18;13.80;30.10
45489;DHT22;31236;55.026;61.042;2023-05-08T13:57:49;13.80;29.50
45489;DHT22;31236;55.026;61.042;2023-05-08T14:00:19;13.90;30.20
45489;DHT22;31236;55.026;61.042;2023-05-08T14:02:49;13.90;30.20
45489;DHT22;31236;55.026;61.042;2023-05-08T14:05:19;13.90;30.70
45489;DHT22;31236;55.026;61.042;2023-05-08T14:07:48;14.00;31.30
45489;DHT22;31236;55.026;61.042;2023-05-08T14:10:18;14.00;30.30
45489;DHT22;31236;55.026;61.042;2023-05-08T14:12:48;14.20;29.80
45489;DHT22;31236;55.026;61.042;2023-05-08T14:15:19;14.20;29.20
45489;DHT22;31236;55.026;61.042;2023-05-08T14:17:48;14.30;29.40
45489;DHT22;31236;55.026;61.042;2023-05-08T14:20:18;14.40;29.80
45489;DHT22;31236;55.026;61.042;2023-05-08T14:22:48;14.50;29.70
45489;DHT22;31236;55.026;61.042;2023-05-08T14:25:18;14.50;29.40
45489;DHT22;31236;55.026;61.042;2023-05-08T14:27:48;14.40;29.70
45489;DHT22;31236;55.026;61.042;2023-05-08T14:30:18;14.50;29.70
45489;DHT22;31236;55.026;61.042;2023-05-08T14:32:48;14.50;29.30
45489;DHT22;31236;55.026;61.042;2023-05-08T14:35:17;14.40;29.50
45489;DHT22;31236;55.026;61.042;2023-05-08T14:37:47;14.40;29.60
45489;DHT22;31236;55.026;61.042;2023-05-08T14:40:17;14.20;29.60
45489;DHT22;31236;55.026;61.042;2023-05-08T14:42:49;14.10;29.50
45489;DHT22;31236;55.026;61.042;2023-05-08T14:45:19;13.80;29.50
45489;DHT22;31236;55.026;61.042;2023-05-08T14:47:49;13.50;29.90
45489;DHT22;31236;55.026;61.042;2023-05-08T14:50:19;13.30;30.00
45489;DHT22;31236;55.026;61.042;2023-05-08T14:52:51;13.20;30.30
45489;DHT22;31236;55.026;61.042;2023-05-08T14:55:21;13.20;30.50
45489;DHT22;31236;55.026;61.042;2023-05-08T14:57:51;13.10;30.70
45489;DHT22;31236;55.026;61.042;2023-05-08T15:00:21;13.00;30.90
45489;DHT22;31236;55.026;61.042;2023-05-08T15:02:51;12.80;31.00
45489;DHT22;31236;55.026;61.042;2023-05-08T15:05:20;12.70;31.20
45489;DHT22;31236;55.026;61.042;2023-05-08T15:07:50;12.50;31.40
45489;DHT22;31236;55.026;61.042;2023-05-08T15:10:20;12.40;31.80
45489;DHT22;31236;55.026;61.042;2023-05-08T15:12:50;12.30;32.00
45489;DHT22;31236;55.026;61.042;2023-05-08T15:15:20;12.20;32.10
45489;DHT22;31236;55.026;61.042;2023-05-08T15:17:50;12.20;32.30
45489;DHT22;31236;55.026;61.042;2023-05-08T15:20:20;12.00;32.10
45489;DHT22;31236;55.026;61.042;2023-05-08T15:22:50;11.90;32.20
45489;DHT22;31236;55.026;61.042;2023-05-08T15:25:22;11.80;32.50
45489;DHT22;31236;55.026;61.042;2023-05-08T15:27:52;11.80;32.60
45489;DHT22;31236;55.026;61.042;2023-05-08T15:30:22;11.70;32.60
45489;DHT22;31236;55.026;61.042;2023-05-08T15:32:53;11.70;32.90
45489;DHT22;31236;55.026;61.042;2023-05-08T15:35:23;11.60;33.00
45489;DHT22;31236;55.026;61.042;2023-05-08T15:37:52;11.50;33.10
45489;DHT22;31236;55.026;61.042;2023-05-08T15:40:22;11.40;33.30
45489;DHT22;31236;55.026;61.042;2023-05-08T15:42:52;11.20;33.20
45489;DHT22;31236;55.026;61.042;2023-05-08T15:45:22;11.20;33.40
45489;DHT22;31236;55.026;61.042;2023-05-08T15:47:52;11.00;33.50
45489;DHT22;31236;55.026;61.042;2023-05-08T15:50:21;11.00;33.60
45489;DHT22;31236;55.026;61.042;2023-05-08T15:52:51;10.90;33.50
45489;DHT22;31236;55.026;61.042;2023-05-08T15:55:21;10.80;33.50
45489;DHT22;31236;55.026;61.042;2023-05-08T15:57:50;10.80;33.80
45489;DHT22;31236;55.026;61.042;2023-05-08T16:00:20;10.70;33.90
45489;DHT22;31236;55.026;61.042;2023-05-08T16:02:51;10.70;33.90
45489;DHT22;31236;55.026;61.042;2023-05-08T16:05:21;10.60;34.20
45489;DHT22;31236;55.026;61.042;2023-05-08T16:07:50;10.60;34.30
45489;DHT22;31236;55.026;61.042;2023-05-08T16:10:21;10.50;34.50
45489;DHT22;31236;55.026;61.042;2023-05-08T16:12:51;10.50;34.70
45489;DHT22;31236;55.026;61.042;2023-05-08T16:15:21;10.50;34.60
45489;DHT22;31236;55.026;61.042;2023-05-08T16:17:50;10.40;34.80
45489;DHT22;31236;55.026;61.042;2023-05-08T16:20:21;10.30;34.90
45489;DHT22;31236;55.026;61.042;2023-05-08T16:23:10;10.20;35.20
45489;DHT22;31236;55.026;61.042;2023-05-08T16:25:40;10.10;35.30
45489;DHT22;31236;55.026;61.042;2023-05-08T16:28:10;10.00;35.30
45489;DHT22;31236;55.026;61.042;2023-05-08T16:30:39;10.00;35.60
45489;DHT22;31236;55.026;61.042;2023-05-08T16:33:09;9.90;35.60
45489;DHT22;31236;55.026;61.042;2023-05-08T16:35:39;10.00;35.80
45489;DHT22;31236;55.026;61.042;2023-05-08T16:38:08;9.90;35.90
45489;DHT22;31236;55.026;61.042;2023-05-08T16:40:38;9.90;36.00
45489;DHT22;31236;55.026;61.042;2023-05-08T16:43:07;9.80;36.10
45489;DHT22;31236;55.026;61.042;2023-05-08T16:45:37;9.70;36.30
45489;DHT22;31236;55.026;61.042;2023-05-08T16:48:08;9.60;36.50
45489;DHT22;31236;55.026;61.042;2023-05-08T16:50:37;9.60;36.50
45489;DHT22;31236;55.026;61.042;2023-05-08T16:53:07;9.50;36.70
45489;DHT22;31236;55.026;61.042;2023-05-08T16:55:37;9.50;36.90
45489;DHT22;31236;55.026;61.042;2023-05-08T16:58:07;9.50;37.00
45489;DHT22;31236;55.026;61.042;2023-05-08T17:00:37;9.40;37.20
45489;DHT22;31236;55.026;61.042;2023-05-08T17:03:06;9.30;37.30
45489;DHT22;31236;55.026;61.042;2023-05-08T17:05:36;9.20;37.40
45489;DHT22;31236;55.026;61.042;2023-05-08T17:08:07;9.10;37.60
45489;DHT22;31236;55.026;61.042;2023-05-08T17:10:37;9.00;38.00
45489;DHT22;31236;55.026;61.042;2023-05-08T17:13:07;8.90;38.20
45489;DHT22;31236;55.026;61.042;2023-05-08T17:15:37;8.90;38.50
45489;DHT22;31236;55.026;61.042;2023-05-08T17:18:07;8.90;38.70
45489;DHT22;31236;55.026;61.042;2023-05-08T17:20:37;8.90;38.60
45489;DHT22;31236;55.026;61.042;2023-05-08T17:23:09;8.80;38.70
45489;DHT22;31236;55.026;61.042;2023-05-08T17:25:39;8.80;39.20